This is the latest recevied weather packets stored in our database for station/object YO4TNV-15. If no packets are shown the sender has not sent any weather packets the latest 10 day(s).
| Time | Temp. | Humidity | Pressure | Rain* | Wind** | Luminosity | Snow |
|---|---|---|---|---|---|---|---|
| 1777706528 | 12.22° C | 49% | 1010.9 hPa | - | - | - | - |
| 1777705639 | 13.33° C | 46% | 1010.9 hPa | - | - | - | - |
| 1777705628 | 13.33° C | 46% | 1010.9 hPa | - | - | - | - |
| 1777704742 | 12.78° C | 53% | 1010.8 hPa | - | - | - | - |
| 1777704728 | 12.78° C | 53% | 1010.8 hPa | - | - | - | - |
| 1777703839 | 11.67° C | 55% | 1010.8 hPa | - | - | - | - |
| 1777703828 | 11.67° C | 55% | 1010.8 hPa | - | - | - | - |
| 1777702939 | 11.11° C | 58% | 1010.8 hPa | - | - | - | - |
| 1777702927 | 11.11° C | 58% | 1010.8 hPa | - | - | - | - |
| 1777702039 | 10.56° C | 65% | 1010.6 hPa | - | - | - | - |
| 1777702026 | 10.56° C | 65% | 1010.6 hPa | - | - | - | - |
| 1777701126 | 10° C | 68% | 1010.4 hPa | - | - | - | - |
| 1777700226 | 9.44° C | 65% | 1010.2 hPa | - | - | - | - |
| 1777699338 | 9.44° C | 65% | 1010.3 hPa | - | - | - | - |
| 1777699326 | 9.44° C | 65% | 1010.3 hPa | - | - | - | - |
| 1777698451 | 9.44° C | 65% | 1010.3 hPa | - | - | - | - |
| 1777698443 | 9.44° C | 65% | 1010.3 hPa | - | - | - | - |
| 1777697552 | 8.89° C | 67% | 1010.2 hPa | - | - | - | - |
| 1777697542 | 8.89° C | 67% | 1010.2 hPa | - | - | - | - |
| 1777696651 | 8.89° C | 67% | 1010 hPa | - | - | - | - |
| 1777696642 | 8.89° C | 67% | 1010 hPa | - | - | - | - |
| 1777695753 | 8.33° C | 67% | 1009.9 hPa | - | - | - | - |
| 1777695742 | 8.33° C | 67% | 1009.9 hPa | - | - | - | - |
| 1777694850 | 8.33° C | 66% | 1009.9 hPa | - | - | - | - |
| 1777694842 | 8.33° C | 66% | 1009.9 hPa | - | - | - | - |
* Rain since midnight (hover to see other rain measurements)
** Current wind speed in m/s (hover to see current wind gust speed)